KCFV/CFV METAR and TAF weather

Enter ICAO airport designator
Station Type Date Time Source
KCFV METAR 2018/01/24 06:52 UTC NOAA

KCFV 240652Z AUTO 00000KT 10SM CLR M03/M06 A3034 RMK AO2 SLP281 T10331061


Station Type Date Time Source
KCFV Decoded METAR 2018/01/24 06:52 UTC NOAA

COFFEYVILLE MUNICIPAL AIRPORT , KS, United States (KCFV) 37-05N 95-34W 225M
Jan 24, 2018 - 01:52 AM EST / 2018.01.24 0652 UTC
Wind: Calm:0
Visibility: 10 mile(s):0
Sky conditions: clear
Temperature: 26.1 F (-3.3 C)
Dew Point: 21.0 F (-6.1 C)
Relative Humidity: 80%
Pressure (altimeter): 30.34 in. Hg (1027 hPa)
ob: KCFV 240652Z AUTO 00000KT 10SM CLR M03/M06 A3034 RMK AO2 SLP281 T10331061
cycle: 7

Station Type Date Time Source
KCFV TAF UTC NOAA

Error!


Example: see airport list